AirNav   Duncan Aviation - Near you to keep you flying
 
 1127 users online  

RI26 Landmark Medical Center Heliport
Woonsocket, Rhode Island, USA

GOING TO WOONSOCKET?


FAA INFORMATION EFFECTIVE 16 JUNE 2022

Location

FAA Identifier: RI26
Lat/Long: 42-00-13.0500N 071-29-42.0900W
42-00.217500N 071-29.701500W
42.0036250,-71.4950250
(estimated)
Elevation: 202 ft. / 62 m (estimated)
Variation: 15W (1990)
Time zone: UTC -4 (UTC -5 during Standard Time)
Zip code: 02895

Heliport Operations

Heliport use: Private use, MEDICAL USE.
Activation date: 02/1993
Control tower: no
ARTCC: BOSTON CENTER
FSS: BRIDGEPORT FLIGHT SERVICE STATION
Attendance: IREG
Wind indicator: lighted
Segmented circle: no

Heliport Communications

WX AWOS-3PT at SFZ (5 nm S): 120.775 (401-334-0324)
WX ASOS at PVD (17 nm S): 124.2 (401-734-2818)
WX ASOS at OWD (18 nm NE): 119.95 (781-762-4314)

Heliport Services

Runway Information

Helipad H1

Dimensions: 35 x 35 ft. / 11 x 11 m
Surface: asphalt, in good condition
Latitude: 42-00.217500N
Longitude: 071-29.701500W
Elevation: 202.0 ft.
Traffic pattern: leftleft

Heliport Ownership and Management from official FAA records

Ownership: Privately-owned
Owner: LANDMARK MEDICAL CENTER
115 CASS AVE
WOONSOCKET, RI 02895
Phone 401-769-4100
Manager: SCOTT PATEFIELD
115 CASS AVE
WOONSOCKET, RI 02895
Phone 401-769-4100
EXT 2286.

Additional Remarks

A52-H1 65 FT BLDG 220 FT N; 30 FT POLE 65 FT N; 60 FT TREES 130 FT E.
FOR CD CTC PROVIDENCE APCH AT 401-738-8945, WHEN APCH CLSD CTC BOSTON ARTCC AT 603-879-6859.

Instrument Procedures

There are no published instrument procedures at RI26.

Some nearby airports with instrument procedures:

KSFZ - North Central State Airport (5 nm S)
1B6 - Hopedale Industrial Park Airport (6 nm N)
1B9 - Mansfield Municipal Airport (13 nm E)
KPVD - Rhode Island TF Green International Airport (17 nm S)
KOWD - Norwood Memorial Airport (18 nm NE)
 
Loc | Ops | Rwys | IFR | FBO | Links
Com | Nav | Svcs | Stats | Notes
Area around RI26 (Landmark Medical Center Heliport)
 
Road maps at: MapQuest Bing Google
 
Aerial photo
No photo
 
Sectional chart

 
Airport distance calculator
Flying to Landmark Medical Center Heliport? Find the distance to fly.

From to RI26

Sunrise and sunset
Times for 02-Jul-2022
 Local
(UTC-4)
 Zulu
(UTC)
Morning civil twilight04:4108:41
Sunrise05:1609:16
Sunset20:2400:24
Evening civil twilight20:5900:59

Current date and time
Zulu (UTC)  02-Jul-2022 16:02:36
Local (UTC-4)  02-Jul-2022 12:02:36
 
METAR
KSFZ 
5nm S 
021556Z AUTO 27008KT CLR 27/21 A2991 RMK AO2 SLP123 T02720211 $
KPVD 
17nm S 
021551Z 23007KT 10SM SCT025 SCT100 BKN300 28/21 A2989 RMK AO2 SLP122 T02830211
KOWD 
18nm NE 
021553Z 23008KT 10SM BKN015 28/21 A2987 RMK AO2 SLP116 T02780206
TAF
KPVD 
17nm S 
021120Z 0212/0312 22007KT P6SM VCSH OVC035 FM021900 22008KT P6SM VCTS BKN030CB FM030000 24005KT 6SM BR BKN060 FM030500 24004KT 3SM BR BKN080 FM030700 25004KT P6SM BKN070
NOTAMs
Click for the latest NOTAMs
NOTAMs are issued by the DoD/FAA and will open in a separate window not controlled by AirNav.

 

 
 

Would you like to see your business listed on this page?

 If your business provides an interesting product or service to pilots, flight crews, aircraft, or users of the Landmark Medical Center Heliport, you should consider listing it here.  To start the listing process, click on the button below
 
Add a business
 

Other Pages about Landmark Medical Center Heliport

Update a link
 
Copyright © AirNav, LLC. All rights reserved. Privacy Policy  Contact